Time;durP1;ratioP1;P1;durP2;ratioP2;P2;SDS_P1;SDS_P2;PMS_P1;PMS_P2;Temp;Humidity;BMP_temperature;BMP_pressure;BME280_temperature;BME280_humidity;BME280_pressure;Samples;Min_cycle;Max_cycle;Signal;HPM_P1;HPM_P2
2024/02/17 00:03:12;;;;;;;;;;;;;;;10.98;100.00;96248.66;10448015;28;1761;-74
2024/02/17 00:08:15;;;;;;;;;;;;;;;10.88;100.00;96256.69;10449492;28;1918;-71
2024/02/17 00:13:17;;;;;;;;;;;;;;;10.77;100.00;96264.72;10443958;28;1505;-68
2024/02/17 00:18:23;;;;;;;;;;;;;;;10.66;100.00;96273.81;10447087;28;2326;-63
2024/02/17 00:23:25;;;;;;;;;;;;;;;10.49;100.00;96283.91;10439548;28;1556;-65
2024/02/17 00:28:28;;;;;;;;;;;;;;;10.51;100.00;96287.97;10437888;28;1975;-63
2024/02/17 00:33:31;;;;;;;;;;;;;;;10.46;100.00;96290.63;10454632;28;1613;-63
2024/02/17 00:38:33;;;;;;;;;;;;;;;10.37;100.00;96297.59;10453124;28;1721;-64
2024/02/17 00:43:36;;;;;;;;;;;;;;;10.35;100.00;96301.56;10442010;28;1603;-65
2024/02/17 00:48:38;;;;;;;;;;;;;;;10.31;100.00;96305.84;10458869;28;1886;-66
2024/02/17 00:53:42;;;;;;;;;;;;;;;10.28;100.00;96310.66;10456158;28;1423;-67
2024/02/17 00:58:45;;;;;;;;;;;;;;;10.24;100.00;96309.59;10451867;28;2378;-65
2024/02/17 01:03:47;;;;;;;;;;;;;;;10.27;100.00;96313.63;10447886;28;1577;-66
2024/02/17 01:08:50;;;;;;;;;;;;;;;10.22;100.00;96317.03;10453722;28;1972;-66
2024/02/17 01:13:53;;;;;;;;;;;;;;;10.21;100.00;96326.19;10458562;28;1710;-66
2024/02/17 01:18:56;;;;;;;;;;;;;;;10.21;100.00;96314.63;10450565;28;1560;-65
2024/02/17 01:23:59;;;;;;;;;;;;;;;10.20;100.00;96323.75;10452148;28;1580;-65
2024/02/17 01:29:01;;;;;;;;;;;;;;;10.20;100.00;96323.75;10450849;28;1906;-65
2024/02/17 01:34:03;;;;;;;;;;;;;;;10.20;100.00;96329.94;10442630;28;1618;-65
2024/02/17 01:39:06;;;;;;;;;;;;;;;10.21;100.00;96330.75;10442912;28;1450;-65
2024/02/17 01:44:09;;;;;;;;;;;;;;;10.21;100.00;96334.25;10447310;28;2288;-64
2024/02/17 01:49:12;;;;;;;;;;;;;;;10.17;100.00;96325.06;10446440;28;1918;-65
2024/02/17 01:54:14;;;;;;;;;;;;;;;10.18;100.00;96332.06;10440500;28;1617;-67
2024/02/17 01:59:17;;;;;;;;;;;;;;;10.15;100.00;96332.56;10448583;28;1726;-66
2024/02/17 02:04:19;;;;;;;;;;;;;;;10.20;100.00;96331.81;10444299;28;1757;-64
2024/02/17 02:09:25;;;;;;;;;;;;;;;10.22;100.00;96337.72;10447263;28;1981;-65
2024/02/17 02:14:27;;;;;;;;;;;;;;;10.22;100.00;96332.34;10421935;28;1607;-66
2024/02/17 02:19:30;;;;;;;;;;;;;;;10.20;100.00;96340.69;10448072;28;1654;-65
2024/02/17 02:24:33;;;;;;;;;;;;;;;10.18;100.00;96339.31;10436168;28;1629;-66
2024/02/17 02:29:35;;;;;;;;;;;;;;;10.18;100.00;96337.44;10443304;28;1971;-65
2024/02/17 02:34:37;;;;;;;;;;;;;;;10.21;100.00;96341.50;10440794;28;2383;-74
2024/02/17 02:39:40;;;;;;;;;;;;;;;10.20;100.00;96347.94;10443641;28;1618;-67
2024/02/17 02:44:43;;;;;;;;;;;;;;;10.20;100.00;96347.94;10444573;28;1791;-72
2024/02/17 02:49:45;;;;;;;;;;;;;;;10.20;100.00;96359.50;10444767;28;1906;-68
2024/02/17 02:54:48;;;;;;;;;;;;;;;10.21;100.00;96353.03;10439391;28;1693;-74
2024/02/17 02:59:51;;;;;;;;;;;;;;;10.19;100.00;96365.13;10443549;28;1674;-66
2024/02/17 03:04:53;;;;;;;;;;;;;;;10.21;100.00;96369.16;10448435;28;1686;-67
2024/02/17 03:09:56;;;;;;;;;;;;;;;10.22;100.00;96360.03;10448833;28;1902;-65
2024/02/17 03:14:58;;;;;;;;;;;;;;;10.22;100.00;96370.78;10450793;28;1356;-66
2024/02/17 03:20:01;;;;;;;;;;;;;;;10.21;100.00;96374.53;10447022;28;2366;-65
2024/02/17 03:25:04;;;;;;;;;;;;;;;10.23;100.00;96375.13;10453051;28;1551;-66
2024/02/17 03:30:07;;;;;;;;;;;;;;;10.22;100.00;96386.09;10446430;28;1922;-67
2024/02/17 03:35:09;;;;;;;;;;;;;;;10.18;100.00;96395.72;10443223;28;1646;-68
2024/02/17 03:40:12;;;;;;;;;;;;;;;10.25;100.00;96402.56;10445116;28;1345;-67
2024/02/17 03:45:15;;;;;;;;;;;;;;;10.19;100.00;96403.56;10454014;28;1381;-66
2024/02/17 03:50:18;;;;;;;;;;;;;;;10.24;100.00;96400.94;10449551;28;1917;-69
2024/02/17 03:55:20;;;;;;;;;;;;;;;10.21;100.00;96406.78;10426424;28;1839;-66
2024/02/17 04:00:23;;;;;;;;;;;;;;;10.18;100.00;96410.00;10449151;28;2395;-67
2024/02/17 04:05:26;;;;;;;;;;;;;;;10.19;100.00;96410.81;10446766;28;2141;-66
2024/02/17 04:10:28;;;;;;;;;;;;;;;10.18;100.00;96427.97;10451120;28;1911;-66
2024/02/17 04:15:31;;;;;;;;;;;;;;;10.14;100.00;96427.69;10442744;28;1444;-66
2024/02/17 04:20:37;;;;;;;;;;;;;;;10.16;100.00;96440.84;10449492;28;1622;-66
2024/02/17 04:25:39;;;;;;;;;;;;;;;10.13;100.00;96442.19;10444970;28;1028;-67
2024/02/17 04:30:42;;;;;;;;;;;;;;;10.13;100.00;96442.19;10424099;28;1985;-67
2024/02/17 04:35:44;;;;;;;;;;;;;;;10.04;100.00;96449.06;10451327;28;1619;-68
2024/02/17 04:40:47;;;;;;;;;;;;;;;10.07;100.00;96464.69;10442863;28;954;-67
2024/02/17 04:45:50;;;;;;;;;;;;;;;10.00;100.00;96467.56;10445782;28;1382;-66
2024/02/17 04:50:52;;;;;;;;;;;;;;;9.99;100.00;96473.19;10443673;28;1977;-69
2024/02/17 04:55:55;;;;;;;;;;;;;;;9.99;100.00;96478.56;10448916;28;996;-77
2024/02/17 05:00:57;;;;;;;;;;;;;;;10.00;100.00;96483.69;10448633;28;2531;-69
2024/02/17 05:06:00;;;;;;;;;;;;;;;9.88;100.00;96488.38;10446405;28;1554;-66
2024/02/17 05:11:03;;;;;;;;;;;;;;;9.90;100.00;96497.00;10447362;28;1917;-68
2024/02/17 05:16:06;;;;;;;;;;;;;;;9.87;100.00;96497.50;10444213;28;1557;-66
2024/02/17 05:21:10;;;;;;;;;;;;;;;9.84;100.00;96502.56;10455608;28;1310;-65
2024/02/17 05:26:13;;;;;;;;;;;;;;;9.89;100.00;96503.44;10461836;28;1300;-74
2024/02/17 05:31:15;;;;;;;;;;;;;;;9.85;100.00;96515.72;10448930;28;1918;-65
2024/02/17 05:36:18;;;;;;;;;;;;;;;9.85;100.00;96520.28;10439977;28;1431;-72
2024/02/17 05:41:20;;;;;;;;;;;;;;;9.94;100.00;96524.97;10462651;28;1126;-67
2024/02/17 05:46:23;;;;;;;;;;;;;;;9.96;100.00;96532.78;10445510;28;1401;-66
2024/02/17 05:51:26;;;;;;;;;;;;;;;10.01;100.00;96538.22;10456632;28;2060;-66
2024/02/17 05:56:28;;;;;;;;;;;;;;;9.98;100.00;96542.19;10451933;28;2443;-66
2024/02/17 06:01:31;;;;;;;;;;;;;;;9.95;100.00;96550.75;10459819;28;1705;-66
2024/02/17 06:06:34;;;;;;;;;;;;;;;9.91;100.00;96567.63;10458543;28;1354;-66
2024/02/17 06:11:37;;;;;;;;;;;;;;;9.92;100.00;96569.25;10449503;28;1914;-66
2024/02/17 06:16:40;;;;;;;;;;;;;;;9.91;100.00;96576.50;10450571;28;1302;-67
2024/02/17 06:21:43;;;;;;;;;;;;;;;9.94;100.00;96591.31;10456092;28;1672;-66
2024/02/17 06:26:45;;;;;;;;;;;;;;;9.90;100.00;96593.66;10446048;28;1128;-65
2024/02/17 06:31:48;;;;;;;;;;;;;;;9.92;100.00;96601.47;10454578;28;1905;-69
2024/02/17 06:36:50;;;;;;;;;;;;;;;9.90;100.00;96608.97;10452572;28;1392;-70
2024/02/17 06:41:53;;;;;;;;;;;;;;;9.90;100.00;96603.59;10449596;28;985;-67
2024/02/17 06:46:56;;;;;;;;;;;;;;;9.83;100.00;96621.78;10454953;28;1451;-65
2024/02/17 06:51:58;;;;;;;;;;;;;;;9.93;100.00;96627.28;10449098;28;2410;-67
2024/02/17 06:57:02;;;;;;;;;;;;;;;9.96;100.00;96634.84;10455033;28;1589;-68
2024/02/17 07:02:04;;;;;;;;;;;;;;;9.95;100.00;96642.09;10431232;28;1561;-67
2024/02/17 07:07:07;;;;;;;;;;;;;;;9.99;100.00;96645.09;10442828;28;1709;-67
2024/02/17 07:12:09;;;;;;;;;;;;;;;10.02;100.00;96650.78;10445785;28;1902;-66
2024/02/17 07:17:12;;;;;;;;;;;;;;;10.00;100.00;96668.22;10448820;28;1655;-66
2024/02/17 07:22:15;;;;;;;;;;;;;;;9.99;100.00;96671.97;10440978;28;1404;-66
2024/02/17 07:27:17;;;;;;;;;;;;;;;9.94;100.00;96679.94;10450868;28;1182;-66
2024/02/17 07:32:22;;;;;;;;;;;;;;;9.87;100.00;96690.84;10444488;28;1652;-67
2024/02/17 07:37:25;;;;;;;;;;;;;;;9.49;100.00;96713.09;10444699;28;1357;-67
2024/02/17 07:42:29;;;;;;;;;;;;;;;9.27;100.00;96722.88;10453009;28;1068;-66
2024/02/17 07:47:31;;;;;;;;;;;;;;;9.37;100.00;96731.94;10451652;28;1975;-65
2024/02/17 07:52:35;;;;;;;;;;;;;;;9.26;100.00;96734.69;10447547;28;1404;-67
2024/02/17 07:57:38;;;;;;;;;;;;;;;9.29;100.00;96744.91;10452141;28;3290;-66
2024/02/17 08:02:41;;;;;;;;;;;;;;;9.25;100.00;96751.84;10456549;28;1713;-66
2024/02/17 08:07:43;;;;;;;;;;;;;;;9.34;100.00;96759.25;10446398;28;1923;-67
2024/02/17 08:12:46;;;;;;;;;;;;;;;9.39;100.00;96764.69;10445967;28;1024;-67
2024/02/17 08:17:48;;;;;;;;;;;;;;;9.44;100.00;96772.84;10444434;28;1649;-67
2024/02/17 08:22:51;;;;;;;;;;;;;;;9.48;100.00;96773.19;10442658;28;1358;-67
2024/02/17 08:27:55;;;;;;;;;;;;;;;9.36;100.00;96785.84;10451045;28;1914;-67
2024/02/17 08:32:58;;;;;;;;;;;;;;;9.27;100.00;96798.00;10449977;28;1946;-65
2024/02/17 08:38:01;;;;;;;;;;;;;;;9.28;100.00;96805.00;10440694;28;1420;-65
2024/02/17 08:43:04;;;;;;;;;;;;;;;9.33;100.00;96803.22;10442692;28;2288;-67
2024/02/17 08:48:07;;;;;;;;;;;;;;;9.48;100.00;96816.13;10440988;28;1977;-66
2024/02/17 08:53:09;;;;;;;;;;;;;;;9.50;100.00;96819.38;10448667;28;1557;-66
2024/02/17 08:58:12;;;;;;;;;;;;;;;9.56;100.00;96825.66;10452692;28;1619;-66
2024/02/17 09:03:14;;;;;;;;;;;;;;;9.54;100.00;96831.25;10452781;28;1448;-66
2024/02/17 09:08:17;;;;;;;;;;;;;;;9.51;100.00;96837.09;10449204;28;1906;-68
2024/02/17 09:13:19;;;;;;;;;;;;;;;9.56;100.00;96847.13;10427919;28;1683;-66
2024/02/17 09:18:22;;;;;;;;;;;;;;;9.62;100.00;96855.03;10456612;28;1389;-65
2024/02/17 09:23:24;;;;;;;;;;;;;;;9.52;100.00;96859.41;10448992;28;1402;-66
2024/02/17 09:28:27;;;;;;;;;;;;;;;9.61;100.00;96871.41;10449057;28;1910;-69
2024/02/17 09:33:30;;;;;;;;;;;;;;;9.49;100.00;96879.50;10447146;28;1633;-68
2024/02/17 09:38:33;;;;;;;;;;;;;;;9.40;100.00;96883.59;10458768;28;2647;-67
2024/02/17 09:43:36;;;;;;;;;;;;;;;9.48;100.00;96891.28;10454409;28;1647;-68
2024/02/17 09:48:39;;;;;;;;;;;;;;;9.43;100.00;96894.69;10448329;28;1923;-68
2024/02/17 09:53:41;;;;;;;;;;;;;;;9.61;100.00;96896.38;10447819;28;1768;-69
2024/02/17 09:58:44;;;;;;;;;;;;;;;9.59;100.00;96909.19;10452042;28;1469;-67
2024/02/17 10:03:46;;;;;;;;;;;;;;;9.37;100.00;96916.28;10447983;28;1864;-68
2024/02/17 10:08:49;;;;;;;;;;;;;;;9.46;100.00;96912.16;10444197;28;1973;-67
2024/02/17 10:13:54;;;;;;;;;;;;;;;9.61;100.00;96927.78;10455531;28;1384;-67
2024/02/17 10:18:56;;;;;;;;;;;;;;;9.82;100.00;96931.66;10450879;28;2264;-67
2024/02/17 10:24:00;;;;;;;;;;;;;;;9.87;100.00;96934.44;10447902;28;1530;-68
2024/02/17 10:29:02;;;;;;;;;;;;;;;9.98;100.00;96939.72;10449982;28;1907;-66
2024/02/17 10:34:05;;;;;;;;;;;;;;;9.94;100.00;96943.16;10452348;28;1714;-69
2024/02/17 10:39:08;;;;;;;;;;;;;;;9.87;100.00;96947.84;10447266;28;1313;-67
2024/02/17 10:44:11;;;;;;;;;;;;;;;10.02;100.00;96950.81;10455049;28;1199;-66
2024/02/17 10:49:16;;;;;;;;;;;;;;;10.12;100.00;96951.00;10443810;28;1987;-67
2024/02/17 10:54:19;;;;;;;;;;;;;;;10.76;100.00;96946.19;10448129;28;1423;-67
2024/02/17 10:59:21;;;;;;;;;;;;;;;11.10;100.00;96935.34;10458409;28;1001;-66
2024/02/17 11:04:24;;;;;;;;;;;;;;;10.96;100.00;96936.78;10453705;28;2506;-67
2024/02/17 11:09:26;;;;;;;;;;;;;;;10.39;100.00;96939.66;10440810;28;1914;-73
2024/02/17 11:14:29;;;;;;;;;;;;;;;10.41;100.00;96950.97;10443233;28;1513;-70
2024/02/17 11:19:31;;;;;;;;;;;;;;;10.41;100.00;96945.59;10455715;28;1377;-67
2024/02/17 11:24:44;;;;;;;;;;;;;;;10.40;100.00;96946.66;10447106;28;1380;-65
2024/02/17 11:29:47;;;;;;;;;;;;;;;10.50;100.00;96954.91;10443937;28;1979;-66
2024/02/17 11:34:49;;;;;;;;;;;;;;;10.15;100.00;96961.25;10450676;28;1623;-66
2024/02/17 11:39:52;;;;;;;;;;;;;;;10.20;100.00;96958.66;10440825;28;1375;-66
2024/02/17 11:44:55;;;;;;;;;;;;;;;10.48;100.00;96959.69;10443044;28;2542;-66
2024/02/17 11:49:57;;;;;;;;;;;;;;;10.22;100.00;96959.22;10449342;28;1910;-66
2024/02/17 11:55:00;;;;;;;;;;;;;;;10.02;100.00;96964.25;10442056;28;1602;-65
2024/02/17 12:00:07;;;;;;;;;;;;;;;10.11;100.00;96970.03;10447574;28;1744;-66
2024/02/17 12:05:10;;;;;;;;;;;;;;;9.84;100.00;96964.44;10442545;28;1484;-66
2024/02/17 12:10:12;;;;;;;;;;;;;;;9.98;100.00;96963.09;10446565;28;1997;-65
2024/02/17 12:15:15;;;;;;;;;;;;;;;10.24;100.00;96959.00;10444000;28;1722;-65
2024/02/17 12:20:17;;;;;;;;;;;;;;;10.77;100.00;96972.00;10448791;28;1223;-65
2024/02/17 12:25:20;;;;;;;;;;;;;;;10.89;100.00;96963.84;10447814;28;1789;-65
2024/02/17 12:30:23;;;;;;;;;;;;;;;10.67;100.00;96963.78;10448224;28;2431;-66
2024/02/17 12:35:26;;;;;;;;;;;;;;;10.80;100.00;96974.19;10439006;28;1533;-66
2024/02/17 12:40:29;;;;;;;;;;;;;;;10.96;100.00;96980.63;10446188;28;1627;-65
2024/02/17 12:45:32;;;;;;;;;;;;;;;11.05;100.00;96971.06;10439677;28;1689;-67
2024/02/17 12:50:34;;;;;;;;;;;;;;;10.53;100.00;96974.03;10449565;28;1902;-66
2024/02/17 12:55:37;;;;;;;;;;;;;;;10.45;100.00;96979.81;10455737;28;1001;-66
2024/02/17 13:00:39;;;;;;;;;;;;;;;10.66;100.00;96982.84;10447874;28;1552;-68
2024/02/17 13:05:44;;;;;;;;;;;;;;;11.29;100.00;96971.69;10428047;28;2056;-65
2024/02/17 13:10:47;;;;;;;;;;;;;;;11.95;100.00;96965.50;10445957;28;1917;-68
2024/02/17 13:15:49;;;;;;;;;;;;;;;11.95;100.00;96970.88;10447740;28;1393;-64
2024/02/17 13:20:52;;;;;;;;;;;;;;;11.12;100.00;96981.66;10445949;28;1385;-65
2024/02/17 13:25:55;;;;;;;;;;;;;;;10.88;100.00;96970.31;10447539;28;2333;-65
2024/02/17 13:30:57;;;;;;;;;;;;;;;10.67;100.00;96974.53;10450175;28;1922;-65
2024/02/17 13:36:00;;;;;;;;;;;;;;;10.73;100.00;96968.16;10443010;28;1435;-64
2024/02/17 13:41:03;;;;;;;;;;;;;;;11.14;100.00;96979.56;10456325;28;1714;-64
2024/02/17 13:46:05;;;;;;;;;;;;;;;11.14;100.00;96984.13;10449923;28;1373;-66
2024/02/17 13:51:08;;;;;;;;;;;;;;;11.12;100.00;96989.72;10454465;28;1969;-64
2024/02/17 13:56:10;;;;;;;;;;;;;;;10.89;100.00;96992.63;10460738;28;2137;-65
2024/02/17 14:01:13;;;;;;;;;;;;;;;10.70;100.00;96995.56;10454303;28;1749;-65
2024/02/17 14:06:16;;;;;;;;;;;;;;;10.90;100.00;97005.03;10449028;28;1356;-64
2024/02/17 14:11:19;;;;;;;;;;;;;;;11.12;100.00;97005.88;10458473;28;1902;-66
2024/02/17 14:16:22;;;;;;;;;;;;;;;11.47;100.00;97002.06;10450003;28;2568;-68
2024/02/17 14:21:24;;;;;;;;;;;;;;;11.77;100.00;97007.88;10437494;28;1705;-65
2024/02/17 14:26:27;;;;;;;;;;;;;;;11.85;100.00;97004.75;10454212;28;1785;-65
2024/02/17 14:31:29;;;;;;;;;;;;;;;11.45;100.00;97023.03;10452264;28;1918;-64
2024/02/17 14:36:32;;;;;;;;;;;;;;;11.20;100.00;97027.00;10448979;28;1548;-68
2024/02/17 14:41:34;;;;;;;;;;;;;;;11.05;100.00;97016.00;10451201;28;1167;-64
2024/02/17 14:46:37;;;;;;;;;;;;;;;10.78;100.00;97013.16;10453740;28;1436;-74
2024/02/17 14:51:39;;;;;;;;;;;;;;;10.49;100.00;97025.84;10450101;28;1972;-70
2024/02/17 14:56:42;;;;;;;;;;;;;;;10.34;100.00;97020.22;10457534;28;2442;-72
2024/02/17 15:01:45;;;;;;;;;;;;;;;10.36;100.00;97028.84;10456970;28;1518;-65
2024/02/17 15:06:47;;;;;;;;;;;;;;;10.38;100.00;97037.50;10449396;28;1742;-65
2024/02/17 15:11:52;;;;;;;;;;;;;;;10.40;100.00;97043.44;10452435;28;1914;-65
2024/02/17 15:16:55;;;;;;;;;;;;;;;10.57;100.00;97046.16;10442331;28;1424;-65
2024/02/17 15:21:58;;;;;;;;;;;;;;;10.70;100.00;97046.66;10455873;28;1596;-65
2024/02/17 15:27:00;;;;;;;;;;;;;;;10.80;100.00;97054.06;10449686;28;1083;-68
2024/02/17 15:32:03;;;;;;;;;;;;;;;10.93;100.00;97066.38;10451691;28;1983;-71
2024/02/17 15:37:06;;;;;;;;;;;;;;;10.93;100.00;97059.13;10452179;28;1358;-65
2024/02/17 15:42:09;;;;;;;;;;;;;;;10.86;100.00;97068.44;10450193;28;1127;-64
2024/02/17 15:47:11;;;;;;;;;;;;;;;10.80;100.00;97073.72;10444284;28;1440;-65
2024/02/17 15:52:14;;;;;;;;;;;;;;;10.71;100.00;97072.50;10447583;28;2411;-64
2024/02/17 15:57:16;;;;;;;;;;;;;;;10.70;100.00;97067.38;10438829;28;1521;-65
2024/02/17 16:02:19;;;;;;;;;;;;;;;10.59;100.00;97074.44;10445384;28;1614;-65
2024/02/17 16:07:21;;;;;;;;;;;;;;;10.44;100.00;97084.91;10444568;28;1726;-65
2024/02/17 16:12:25;;;;;;;;;;;;;;;10.28;100.00;97087.28;10442358;28;1918;-65
2024/02/17 16:17:28;;;;;;;;;;;;;;;10.07;100.00;97087.94;10425961;28;1762;-64
2024/02/17 16:22:31;;;;;;;;;;;;;;;9.93;100.00;97097.31;10449071;28;1617;-64
2024/02/17 16:27:33;;;;;;;;;;;;;;;9.81;100.00;97100.03;10446567;28;1174;-68
2024/02/17 16:32:35;;;;;;;;;;;;;;;9.58;100.00;97103.53;10448630;28;1910;-65
2024/02/17 16:37:40;;;;;;;;;;;;;;;9.39;100.00;97104.72;10448456;28;1357;-64
2024/02/17 16:42:43;;;;;;;;;;;;;;;9.16;100.00;97109.03;10450617;28;1309;-64
2024/02/17 16:47:47;;;;;;;;;;;;;;;8.99;100.00;97123.34;10444156;28;2426;-64
2024/02/17 16:52:49;;;;;;;;;;;;;;;8.87;100.00;97132.16;10437250;28;2006;-66
2024/02/17 16:57:51;;;;;;;;;;;;;;;8.72;100.00;97145.19;10442908;28;1524;-65
2024/02/17 17:02:54;;;;;;;;;;;;;;;8.65;100.00;97149.78;10448444;28;1492;-71
2024/02/17 17:07:56;;;;;;;;;;;;;;;8.65;100.00;97157.84;10449790;28;1305;-70
2024/02/17 17:12:59;;;;;;;;;;;;;;;8.65;100.00;97166.72;10455070;28;1910;-66
2024/02/17 17:18:05;;;;;;;;;;;;;;;8.52;100.00;97169.56;10454912;28;1782;-66
2024/02/17 17:23:08;;;;;;;;;;;;;;;8.44;100.00;97172.56;10451665;28;1839;-67
2024/02/17 17:28:10;;;;;;;;;;;;;;;8.38;100.00;97182.31;10455131;28;1401;-64
2024/02/17 17:33:13;;;;;;;;;;;;;;;8.30;100.00;97189.81;10446700;28;1973;-64
2024/02/17 17:38:15;;;;;;;;;;;;;;;8.19;100.00;97198.59;10452698;28;1360;-64
2024/02/17 17:43:18;;;;;;;;;;;;;;;8.03;100.00;97203.50;10451807;28;2352;-64
2024/02/17 17:48:20;;;;;;;;;;;;;;;7.88;100.00;97203.03;10434127;28;1440;-64
2024/02/17 17:53:24;;;;;;;;;;;;;;;7.75;100.00;97208.50;10448194;28;1979;-67
2024/02/17 17:58:27;;;;;;;;;;;;;;;7.85;100.00;97215.00;10450013;28;1754;-64
2024/02/17 18:03:30;;;;;;;;;;;;;;;8.00;100.00;97228.03;10453363;28;1734;-64
2024/02/17 18:08:33;;;;;;;;;;;;;;;8.17;100.00;97227.47;10448238;28;1821;-65
2024/02/17 18:13:38;;;;;;;;;;;;;;;8.24;100.00;97238.94;10452316;28;1914;-65
2024/02/17 18:18:42;;;;;;;;;;;;;;;8.30;100.00;97248.75;10461363;28;1290;-64
2024/02/17 18:23:45;;;;;;;;;;;;;;;8.23;100.00;97250.69;10453952;28;2311;-64
2024/02/17 18:28:49;;;;;;;;;;;;;;;8.25;100.00;97262.00;10441578;28;1557;-66
2024/02/17 18:33:52;;;;;;;;;;;;;;;8.20;100.00;97259.16;10446582;28;1910;-65
2024/02/17 18:38:54;;;;;;;;;;;;;;;8.07;100.00;97252.88;10452295;28;1728;-64
2024/02/17 18:43:58;;;;;;;;;;;;;;;7.94;100.00;97258.38;10453061;28;1449;-73
2024/02/17 18:49:01;;;;;;;;;;;;;;;7.88;100.00;97269.97;10456321;28;1457;-66
2024/02/17 18:54:03;;;;;;;;;;;;;;;7.82;100.00;97273.50;10452277;28;1978;-65
2024/02/17 18:59:06;;;;;;;;;;;;;;;7.78;100.00;97267.78;10456398;28;1588;-67
2024/02/17 19:04:13;;;;;;;;;;;;;;;7.73;100.00;97269.50;10442325;28;1618;-66
2024/02/17 19:09:16;;;;;;;;;;;;;;;7.72;100.00;97275.88;10447478;28;1393;-64
2024/02/17 19:14:19;;;;;;;;;;;;;;;7.67;100.00;97281.88;10453633;28;1983;-64
2024/02/17 19:19:21;;;;;;;;;;;;;;;7.54;100.00;97272.09;10453126;28;2445;-68
2024/02/17 19:24:26;;;;;;;;;;;;;;;7.50;100.00;97276.25;10446506;28;1636;-65
2024/02/17 19:29:29;;;;;;;;;;;;;;;7.40;100.00;97291.97;10444901;28;1727;-64
2024/02/17 19:34:32;;;;;;;;;;;;;;;7.37;100.00;97287.03;10445929;28;1914;-69
2024/02/17 19:39:34;;;;;;;;;;;;;;;7.40;100.00;97291.97;10447311;28;1482;-66
2024/02/17 19:44:37;;;;;;;;;;;;;;;7.47;100.00;97294.59;10452453;28;1048;-65
2024/02/17 19:49:40;;;;;;;;;;;;;;;7.44;100.00;97290.47;10448324;28;1983;-65
2024/02/17 19:54:43;;;;;;;;;;;;;;;7.41;100.00;97292.78;10445351;28;1906;-64
2024/02/17 19:59:46;;;;;;;;;;;;;;;7.40;100.00;97286.63;10446724;28;1424;-65
2024/02/17 20:04:49;;;;;;;;;;;;;;;7.40;100.00;97296.50;10452334;28;2435;-65
2024/02/17 20:09:51;;;;;;;;;;;;;;;7.38;100.00;97298.56;10448897;28;1481;-65
2024/02/17 20:14:56;;;;;;;;;;;;;;;7.42;100.00;97305.94;10447409;28;1981;-65
2024/02/17 20:19:59;;;;;;;;;;;;;;;7.51;100.00;97310.00;10446673;28;1572;-67
2024/02/17 20:25:02;;;;;;;;;;;;;;;7.64;100.00;97310.97;10445329;28;1600;-66
2024/02/17 20:30:05;;;;;;;;;;;;;;;7.73;100.00;97304.28;10445923;28;1506;-65
2024/02/17 20:35:07;;;;;;;;;;;;;;;7.79;100.00;97295.38;10448033;28;1918;-65
2024/02/17 20:40:12;;;;;;;;;;;;;;;7.75;100.00;97295.00;10444667;28;1491;-65
2024/02/17 20:45:17;;;;;;;;;;;;;;;7.69;100.00;97284.34;10449576;28;1464;-64
2024/02/17 20:50:19;;;;;;;;;;;;;;;7.50;100.00;97286.94;10459678;28;1001;-65
2024/02/17 20:55:22;;;;;;;;;;;;;;;7.33;100.00;97288.53;10457579;28;1913;-65
2024/02/17 21:00:25;;;;;;;;;;;;;;;7.32;100.00;97292.25;10459020;28;1364;-65
2024/02/17 21:05:28;;;;;;;;;;;;;;;7.50;100.00;97291.47;10458299;28;1417;-66
2024/02/17 21:10:30;;;;;;;;;;;;;;;7.70;100.00;97294.84;10460362;28;1210;-68
2024/02/17 21:15:33;;;;;;;;;;;;;;;7.84;100.00;97293.69;10456862;28;2955;-70
2024/02/17 21:20:37;;;;;;;;;;;;;;;7.96;100.00;97301.84;10450547;28;1405;-65
2024/02/17 21:25:39;;;;;;;;;;;;;;;8.04;100.00;97290.84;10462629;28;1028;-73
2024/02/17 21:30:42;;;;;;;;;;;;;;;8.10;100.00;97297.19;10451928;28;1399;-66
2024/02/17 21:35:47;;;;;;;;;;;;;;;8.14;100.00;97293.00;10460088;28;1910;-68
2024/02/17 21:40:49;;;;;;;;;;;;;;;8.20;100.00;97299.34;10449485;28;1049;-70
2024/02/17 21:45:52;;;;;;;;;;;;;;;8.23;100.00;97288.19;10450703;28;1428;-65
2024/02/17 21:50:56;;;;;;;;;;;;;;;8.26;100.00;97293.09;10448829;28;1371;-66
2024/02/17 21:55:58;;;;;;;;;;;;;;;8.18;100.00;97296.88;10444864;28;2695;-65
2024/02/17 22:01:01;;;;;;;;;;;;;;;8.25;100.00;97291.47;10456104;28;1520;-64
2024/02/17 22:06:04;;;;;;;;;;;;;;;8.35;100.00;97298.00;10450261;28;1753;-64
2024/02/17 22:11:07;;;;;;;;;;;;;;;8.40;100.00;97302.69;10450654;28;1614;-65
2024/02/17 22:16:11;;;;;;;;;;;;;;;8.38;100.00;97299.38;10456519;28;1449;-65
2024/02/17 22:21:14;;;;;;;;;;;;;;;8.38;100.00;97304.75;10447807;28;1630;-68
2024/02/17 22:26:17;;;;;;;;;;;;;;;8.30;100.00;97302.34;10453035;28;1926;-66
2024/02/17 22:31:19;;;;;;;;;;;;;;;8.34;100.00;97298.19;10445527;28;1901;-64
2024/02/17 22:36:22;;;;;;;;;;;;;;;8.37;100.00;97308.47;10447238;28;1326;-64
2024/02/17 22:41:24;;;;;;;;;;;;;;;8.38;100.00;97305.56;10460491;28;1143;-63
2024/02/17 22:46:27;;;;;;;;;;;;;;;8.41;100.00;97298.97;10444884;28;1436;-69
2024/02/17 22:51:30;;;;;;;;;;;;;;;8.40;100.00;97291.97;10448856;28;2405;-66
2024/02/17 22:56:33;;;;;;;;;;;;;;;8.35;100.00;97284.59;10451949;28;1071;-66
2024/02/17 23:01:35;;;;;;;;;;;;;;;8.37;100.00;97293.22;10451513;28;1508;-63
2024/02/17 23:06:38;;;;;;;;;;;;;;;8.37;100.00;97284.34;10459115;28;1610;-65
2024/02/17 23:11:42;;;;;;;;;;;;;;;8.35;100.00;97294.47;10447032;28;1979;-64
2024/02/17 23:16:44;;;;;;;;;;;;;;;8.31;100.00;97287.91;10444182;28;1591;-64
2024/02/17 23:21:47;;;;;;;;;;;;;;;8.27;100.00;97278.66;10456130;28;1349;-64
2024/02/17 23:26:51;;;;;;;;;;;;;;;8.22;100.00;97273.97;10445492;28;1111;-63
2024/02/17 23:31:55;;;;;;;;;;;;;;;8.04;100.00;97277.44;10441204;28;1967;-65
2024/02/17 23:36:57;;;;;;;;;;;;;;;7.80;100.00;97272.94;10432789;28;1534;-63
2024/02/17 23:42:00;;;;;;;;;;;;;;;7.67;100.00;97278.41;10445215;28;941;-64
2024/02/17 23:47:03;;;;;;;;;;;;;;;7.68;100.00;97274.66;10448957;28;2339;-64
2024/02/17 23:52:05;;;;;;;;;;;;;;;7.69;100.00;97268.28;10445603;28;1974;-64
2024/02/17 23:57:08;;;;;;;;;;;;;;;7.82;100.00;97263.66;10452418;28;1459;-64
